createdAt,value
2017-07-19T00:00:03.317Z,21.40
2017-07-19T00:02:30.885Z,21.30
2017-07-19T00:04:58.430Z,21.20
2017-07-19T00:07:25.969Z,21.30
2017-07-19T00:09:53.541Z,21.20
2017-07-19T00:12:21.854Z,21.20
2017-07-19T00:14:49.394Z,21.20
2017-07-19T00:17:17.062Z,21.20
2017-07-19T00:19:44.902Z,21.10
2017-07-19T00:22:13.238Z,21.00
2017-07-19T00:24:40.813Z,20.90
2017-07-19T00:27:08.386Z,20.90
2017-07-19T00:29:35.929Z,20.90
2017-07-19T00:32:03.545Z,20.90
2017-07-19T00:34:31.093Z,20.90
2017-07-19T00:36:58.631Z,20.90
2017-07-19T00:39:26.261Z,21.00
2017-07-19T00:41:53.811Z,21.00
2017-07-19T00:44:21.354Z,21.00
2017-07-19T00:46:48.929Z,21.00
2017-07-19T00:49:16.490Z,21.10
2017-07-19T00:51:44.034Z,21.20
2017-07-19T00:54:11.607Z,21.20
2017-07-19T00:56:39.140Z,21.20
2017-07-19T00:59:06.686Z,21.20
2017-07-19T01:01:35.065Z,21.30
2017-07-19T01:04:03.365Z,21.30
2017-07-19T01:06:30.906Z,21.30
2017-07-19T01:08:59.243Z,21.40
2017-07-19T01:11:26.790Z,21.30
2017-07-19T01:13:54.335Z,21.30
2017-07-19T01:16:21.918Z,21.30
2017-07-19T01:18:49.460Z,21.30
2017-07-19T01:21:17.309Z,21.30
2017-07-19T01:23:44.926Z,21.20
2017-07-19T01:26:12.465Z,21.10
2017-07-19T01:28:40.017Z,21.10
2017-07-19T01:31:07.589Z,21.10
2017-07-19T01:33:35.141Z,20.90
2017-07-19T01:36:02.687Z,20.90
2017-07-19T01:38:30.315Z,20.80
2017-07-19T01:40:57.862Z,20.90
2017-07-19T01:43:25.412Z,20.90
2017-07-19T01:45:53.027Z,20.90
2017-07-19T01:48:20.577Z,20.90
2017-07-19T01:50:48.116Z,20.70
2017-07-19T01:53:15.686Z,20.70
2017-07-19T01:55:43.257Z,20.80
2017-07-19T01:58:10.857Z,20.90
2017-07-19T02:00:38.425Z,20.90
2017-07-19T02:03:05.970Z,20.80
2017-07-19T02:05:33.512Z,20.90
2017-07-19T02:08:01.173Z,20.90
2017-07-19T02:10:28.750Z,21.00
2017-07-19T02:12:56.286Z,20.90
2017-07-19T02:15:23.860Z,20.90
2017-07-19T02:17:51.414Z,20.90
2017-07-19T02:20:18.960Z,20.80
2017-07-19T02:22:46.974Z,20.80
2017-07-19T02:25:14.518Z,20.70
2017-07-19T02:27:42.066Z,20.70
2017-07-19T02:30:09.818Z,20.50
2017-07-19T02:32:37.373Z,20.40
2017-07-19T02:35:04.917Z,20.40
2017-07-19T02:37:32.485Z,20.30
2017-07-19T02:40:00.029Z,20.30
2017-07-19T02:42:27.573Z,20.30
2017-07-19T02:44:55.944Z,20.40
2017-07-19T02:47:23.490Z,20.30
2017-07-19T02:49:51.037Z,20.40
2017-07-19T02:52:18.657Z,20.30
2017-07-19T02:54:46.201Z,20.30
2017-07-19T02:57:13.774Z,20.30
2017-07-19T02:59:41.357Z,20.40
2017-07-19T03:02:08.893Z,20.30
2017-07-19T03:04:36.433Z,20.30
2017-07-19T03:07:04.010Z,20.20
2017-07-19T03:09:32.326Z,20.10
2017-07-19T03:11:59.861Z,20.10
2017-07-19T03:14:27.515Z,19.90
2017-07-19T03:16:55.098Z,19.80
2017-07-19T03:19:22.789Z,19.80
2017-07-19T03:21:50.362Z,19.80
2017-07-19T03:24:18.585Z,19.70
2017-07-19T03:26:46.139Z,19.70
2017-07-19T03:29:13.709Z,19.80
2017-07-19T03:31:41.254Z,19.80
2017-07-19T03:34:08.800Z,19.90
2017-07-19T03:36:37.188Z,19.90
2017-07-19T03:39:04.733Z,19.80
2017-07-19T03:41:32.280Z,19.80
2017-07-19T03:43:59.849Z,19.80
2017-07-19T03:46:27.389Z,19.90
2017-07-19T03:48:54.930Z,19.90
2017-07-19T03:51:22.557Z,19.90
2017-07-19T03:53:50.099Z,19.90
2017-07-19T03:56:17.642Z,19.90
2017-07-19T03:58:45.253Z,19.80
2017-07-19T04:01:13.027Z,19.80
2017-07-19T04:03:40.587Z,19.90
2017-07-19T04:06:08.157Z,19.90
2017-07-19T04:08:36.513Z,19.70
2017-07-19T04:11:04.061Z,19.70
2017-07-19T04:13:31.659Z,19.70
2017-07-19T04:15:59.213Z,19.60
2017-07-19T04:18:26.761Z,19.50
2017-07-19T04:20:54.390Z,19.50
2017-07-19T04:23:21.937Z,19.60
2017-07-19T04:25:50.726Z,19.60
2017-07-19T04:28:18.293Z,19.60
2017-07-19T04:30:45.842Z,19.60
2017-07-19T04:33:13.427Z,19.70
2017-07-19T04:35:40.989Z,19.70
2017-07-19T04:38:08.534Z,19.50
2017-07-19T04:40:36.842Z,19.60
2017-07-19T04:43:04.445Z,19.60
2017-07-19T04:45:31.986Z,19.30
2017-07-19T04:47:59.521Z,19.20
2017-07-19T04:50:27.091Z,19.30
2017-07-19T04:52:54.628Z,19.50
2017-07-19T04:55:22.169Z,19.50
2017-07-19T04:57:49.783Z,19.60
2017-07-19T05:00:17.331Z,19.80
2017-07-19T05:02:44.870Z,20.00
2017-07-19T05:05:12.755Z,20.20
2017-07-19T05:07:40.317Z,20.50
2017-07-19T05:10:07.870Z,20.80
2017-07-19T05:12:35.437Z,21.00
2017-07-19T05:15:02.978Z,21.30
2017-07-19T05:17:30.518Z,21.70
2017-07-19T05:19:58.124Z,22.10
2017-07-19T05:22:25.715Z,22.40
2017-07-19T05:24:53.253Z,22.70
2017-07-19T05:27:21.233Z,22.80
2017-07-19T05:29:48.777Z,23.00
2017-07-19T05:32:16.317Z,23.20
2017-07-19T05:34:43.909Z,23.30
2017-07-19T05:37:11.450Z,23.40
2017-07-19T05:39:38.986Z,23.70
2017-07-19T05:42:07.261Z,24.00
2017-07-19T05:44:34.809Z,24.20
2017-07-19T05:47:02.358Z,24.10
2017-07-19T05:49:29.973Z,24.10
2017-07-19T05:51:57.522Z,24.20
2017-07-19T05:54:25.057Z,24.10
2017-07-19T05:56:52.617Z,24.10
2017-07-19T05:59:20.154Z,25.10
2017-07-19T06:01:48.465Z,26.90
2017-07-19T06:04:16.068Z,26.80
2017-07-19T06:06:43.605Z,27.30
2017-07-19T06:09:11.144Z,27.20
2017-07-19T06:11:38.794Z,26.70
2017-07-19T06:14:06.333Z,26.70
2017-07-19T06:16:33.876Z,26.50
2017-07-19T06:19:01.437Z,26.10
2017-07-19T06:21:28.980Z,25.60
2017-07-19T06:23:56.518Z,25.50
2017-07-19T06:26:24.090Z,25.70
2017-07-19T06:28:52.090Z,25.70
2017-07-19T06:31:19.630Z,25.70
2017-07-19T06:33:47.242Z,25.50
2017-07-19T06:36:14.783Z,25.40
2017-07-19T06:38:43.097Z,25.60
2017-07-19T06:41:10.663Z,25.60
2017-07-19T06:43:38.205Z,25.60
2017-07-19T06:46:05.745Z,25.40
2017-07-19T06:48:33.317Z,25.40
2017-07-19T06:51:01.623Z,25.10
2017-07-19T06:53:29.178Z,25.10
2017-07-19T06:55:56.801Z,24.80
2017-07-19T06:58:24.347Z,24.80
2017-07-19T07:00:51.911Z,24.70
2017-07-19T07:03:19.484Z,24.40
2017-07-19T07:05:47.031Z,24.30
2017-07-19T07:08:14.569Z,24.40
2017-07-19T07:10:42.169Z,24.40
2017-07-19T07:13:09.705Z,24.30
2017-07-19T07:15:37.236Z,24.50
2017-07-19T07:18:04.836Z,25.20
2017-07-19T07:20:32.373Z,26.20
2017-07-19T07:22:59.917Z,28.30
2017-07-19T07:25:27.485Z,31.10
2017-07-19T07:27:55.023Z,33.00
2017-07-19T07:30:23.069Z,33.40
2017-07-19T07:32:50.634Z,32.90
2017-07-19T07:35:18.251Z,33.80
2017-07-19T07:37:45.809Z,35.10
2017-07-19T07:40:13.421Z,36.60
2017-07-19T07:42:40.961Z,38.20
2017-07-19T07:45:08.502Z,39.00
2017-07-19T07:47:36.070Z,39.80
2017-07-19T07:50:03.622Z,40.40
2017-07-19T07:52:31.165Z,40.80
2017-07-19T07:54:58.752Z,41.30
2017-07-19T07:57:26.285Z,42.10
2017-07-19T07:59:53.826Z,42.30
2017-07-19T08:02:21.425Z,42.30
2017-07-19T08:04:48.961Z,42.80
2017-07-19T08:07:16.498Z,43.00
2017-07-19T08:09:44.066Z,43.70
2017-07-19T08:12:11.606Z,43.70
2017-07-19T08:14:39.149Z,44.20
2017-07-19T08:17:06.777Z,44.50
2017-07-19T08:19:34.313Z,45.00
2017-07-19T08:22:01.845Z,45.30
2017-07-19T08:24:29.455Z,45.00
2017-07-19T08:26:57.001Z,45.20
2017-07-19T08:29:24.538Z,44.70
2017-07-19T08:31:52.606Z,45.20
2017-07-19T08:34:20.145Z,46.00
2017-07-19T08:36:47.742Z,46.20
2017-07-19T08:39:15.310Z,46.70
2017-07-19T08:41:42.851Z,47.40
2017-07-19T08:44:10.398Z,47.60
2017-07-19T08:46:38.018Z,47.80
2017-07-19T08:49:05.549Z,47.70
2017-07-19T08:51:33.086Z,48.00
2017-07-19T08:54:00.657Z,48.00
2017-07-19T08:56:28.193Z,48.00
2017-07-19T08:58:55.737Z,48.70
2017-07-19T09:01:23.308Z,48.80
2017-07-19T09:03:50.849Z,49.30
2017-07-19T09:06:19.162Z,48.90
2017-07-19T09:08:46.822Z,48.90
2017-07-19T09:11:14.381Z,49.20
2017-07-19T09:13:41.929Z,49.20
2017-07-19T09:16:09.493Z,49.40
2017-07-19T09:18:37.033Z,49.70
2017-07-19T09:21:04.573Z,50.00
2017-07-19T09:23:32.197Z,50.10
2017-07-19T09:25:59.737Z,49.30
2017-07-19T09:28:27.970Z,49.10
2017-07-19T09:31:00.069Z,49.40
2017-07-19T09:33:27.904Z,49.10
2017-07-19T09:35:55.450Z,49.20
2017-07-19T09:38:24.210Z,49.50
2017-07-19T09:40:51.778Z,49.10
2017-07-19T09:43:19.343Z,46.70
2017-07-19T09:45:47.887Z,46.20
2017-07-19T09:48:15.511Z,45.10
2017-07-19T09:50:43.601Z,46.10
2017-07-19T09:53:11.995Z,45.00
2017-07-19T09:55:39.550Z,45.00
2017-07-19T09:58:07.106Z,45.10
2017-07-19T10:00:38.720Z,45.90
2017-07-19T10:03:06.278Z,45.10
2017-07-19T10:05:36.726Z,45.50
2017-07-19T10:08:05.280Z,45.30
2017-07-19T10:10:32.822Z,45.00
2017-07-19T10:13:00.358Z,43.40
2017-07-19T10:15:27.973Z,43.00
2017-07-19T10:17:55.513Z,41.30
2017-07-19T10:20:23.053Z,40.60
2017-07-19T10:22:50.621Z,40.60
2017-07-19T10:25:18.166Z,40.20
2017-07-19T10:27:45.732Z,38.80
2017-07-19T10:30:13.342Z,38.00
2017-07-19T10:32:40.882Z,37.20
2017-07-19T10:35:08.813Z,36.30
2017-07-19T10:37:36.427Z,36.20
2017-07-19T10:40:03.966Z,35.50
2017-07-19T10:42:31.517Z,34.80
2017-07-19T10:44:59.790Z,34.30
2017-07-19T10:47:27.339Z,33.70
2017-07-19T10:49:56.339Z,33.40
2017-07-19T10:52:23.922Z,33.30
2017-07-19T10:54:51.583Z,33.50
2017-07-19T10:57:19.130Z,33.90
2017-07-19T10:59:46.746Z,33.90
2017-07-19T11:02:14.285Z,34.30
2017-07-19T11:04:41.825Z,34.30
2017-07-19T11:07:09.398Z,33.90
2017-07-19T11:09:36.933Z,34.10
2017-07-19T11:12:04.483Z,33.90
2017-07-19T11:14:32.054Z,34.10
2017-07-19T11:16:59.588Z,34.30
2017-07-19T11:19:27.129Z,34.00
2017-07-19T11:21:54.749Z,33.80
2017-07-19T11:24:25.898Z,33.90
2017-07-19T11:26:53.449Z,33.90
2017-07-19T11:29:21.013Z,34.20
2017-07-19T11:31:48.713Z,34.50
2017-07-19T11:34:17.030Z,34.00
2017-07-19T11:36:44.663Z,34.00
2017-07-19T11:39:12.210Z,34.40
2017-07-19T11:41:39.986Z,34.70
2017-07-19T11:44:07.656Z,34.90
2017-07-19T11:46:35.419Z,35.20
2017-07-19T11:49:03.021Z,35.10
2017-07-19T11:51:30.617Z,35.10
2017-07-19T11:53:58.206Z,34.90
2017-07-19T11:56:25.781Z,34.80
2017-07-19T11:58:53.350Z,34.50
2017-07-19T12:01:20.910Z,34.00
2017-07-19T12:03:48.506Z,34.30
2017-07-19T12:06:16.174Z,34.00
2017-07-19T12:08:45.081Z,34.10
2017-07-19T12:11:12.623Z,34.10
2017-07-19T12:13:40.233Z,33.80
2017-07-19T12:16:08.214Z,33.70
2017-07-19T12:18:35.752Z,33.50
2017-07-19T12:21:03.334Z,33.30
2017-07-19T12:23:30.869Z,33.60
2017-07-19T12:25:58.578Z,34.00
2017-07-19T12:28:26.203Z,34.10
2017-07-19T12:30:53.745Z,34.10
2017-07-19T12:33:21.289Z,34.20
2017-07-19T12:35:49.778Z,34.50
2017-07-19T12:38:17.731Z,34.50
2017-07-19T12:40:45.283Z,34.40
2017-07-19T12:43:12.940Z,34.20
2017-07-19T12:45:40.535Z,34.40
2017-07-19T12:48:08.083Z,34.50
2017-07-19T12:50:35.843Z,34.50
2017-07-19T12:53:03.387Z,34.50
2017-07-19T12:55:31.010Z,34.40
2017-07-19T12:57:58.686Z,34.60
2017-07-19T13:00:26.308Z,34.90
2017-07-19T13:02:53.841Z,35.20
2017-07-19T13:05:21.404Z,35.30
2017-07-19T13:07:48.952Z,35.40
2017-07-19T13:10:16.488Z,35.50
2017-07-19T13:12:44.097Z,35.60
2017-07-19T13:15:11.637Z,35.50
2017-07-19T13:17:39.171Z,35.50
2017-07-19T13:20:06.913Z,35.40
2017-07-19T13:22:34.580Z,35.00
2017-07-19T13:25:02.148Z,34.70
2017-07-19T13:27:29.743Z,34.50
2017-07-19T13:29:57.286Z,33.80
2017-07-19T13:34:59.041Z,33.80
2017-07-19T13:37:26.922Z,34.10
2017-07-19T13:39:56.020Z,34.30
2017-07-19T13:42:23.623Z,34.70
2017-07-19T13:44:51.929Z,35.00
2017-07-19T13:47:19.469Z,35.00
2017-07-19T13:49:47.846Z,35.30
2017-07-19T13:52:16.199Z,35.10
2017-07-19T13:54:43.758Z,35.10
2017-07-19T13:57:11.407Z,34.80
2017-07-19T13:59:38.980Z,35.10
2017-07-19T14:02:06.521Z,35.10
2017-07-19T14:04:34.135Z,35.20
2017-07-19T14:07:01.697Z,35.20
2017-07-19T14:09:29.266Z,35.00
2017-07-19T14:11:57.109Z,34.90
2017-07-19T14:14:25.445Z,35.00
2017-07-19T14:16:53.007Z,35.00
2017-07-19T14:19:20.703Z,35.20
2017-07-19T14:21:49.029Z,35.50
2017-07-19T14:24:23.444Z,35.50
2017-07-19T14:26:51.029Z,35.60
2017-07-19T14:29:18.640Z,35.70
2017-07-19T14:31:46.231Z,35.80
2017-07-19T14:34:13.803Z,35.80
2017-07-19T14:36:41.366Z,35.70
2017-07-19T14:39:09.786Z,35.70
2017-07-19T14:41:37.782Z,35.40
2017-07-19T14:44:05.337Z,35.50
2017-07-19T14:46:32.927Z,35.60
2017-07-19T14:49:00.485Z,35.80
2017-07-19T14:51:28.039Z,35.70
2017-07-19T14:53:55.659Z,35.50
2017-07-19T14:56:23.217Z,35.40
2017-07-19T14:58:50.778Z,35.30
2017-07-19T15:01:19.172Z,35.10
2017-07-19T15:03:46.725Z,35.10
2017-07-19T15:06:14.274Z,35.00
2017-07-19T15:08:41.886Z,35.30
2017-07-19T15:11:09.440Z,35.50
2017-07-19T15:13:37.000Z,35.60
2017-07-19T15:16:04.576Z,35.70
2017-07-19T15:18:32.146Z,35.90
2017-07-19T15:20:59.715Z,36.00
2017-07-19T15:23:27.327Z,36.00
2017-07-19T15:25:54.865Z,35.80
2017-07-19T15:28:22.406Z,35.70
2017-07-19T15:30:49.969Z,35.70
2017-07-19T15:33:17.520Z,35.70
2017-07-19T15:35:45.833Z,35.40
2017-07-19T15:38:13.407Z,35.40
2017-07-19T15:40:40.953Z,35.40
2017-07-19T15:43:08.821Z,35.60
2017-07-19T15:45:36.528Z,35.60
2017-07-19T15:48:04.163Z,35.80
2017-07-19T15:50:31.705Z,35.70
2017-07-19T15:52:59.283Z,35.70
2017-07-19T15:55:26.821Z,35.70
2017-07-19T15:57:54.361Z,35.60
2017-07-19T16:00:21.982Z,35.60
2017-07-19T16:02:49.518Z,35.50
2017-07-19T16:05:17.078Z,35.50
2017-07-19T16:07:44.852Z,35.40
2017-07-19T16:10:12.418Z,35.50
2017-07-19T16:12:39.965Z,35.60
2017-07-19T16:15:07.581Z,35.70
2017-07-19T16:17:35.150Z,35.70
2017-07-19T16:20:03.459Z,35.50
2017-07-19T16:22:31.022Z,35.50
2017-07-19T16:24:58.566Z,35.60
2017-07-19T16:27:26.190Z,35.40
2017-07-19T16:29:53.847Z,35.40
2017-07-19T16:32:21.391Z,35.40
2017-07-19T16:34:48.929Z,35.30
2017-07-19T16:37:16.493Z,35.20
2017-07-19T16:39:44.119Z,35.10
2017-07-19T16:42:11.700Z,35.10
2017-07-19T16:44:39.821Z,35.00
2017-07-19T16:47:07.357Z,35.10
2017-07-19T16:49:34.902Z,35.00
2017-07-19T16:52:02.597Z,34.90
2017-07-19T16:54:30.145Z,34.90
2017-07-19T16:56:57.681Z,34.80
2017-07-19T16:59:25.251Z,34.70
2017-07-19T17:01:52.789Z,34.70
2017-07-19T17:04:20.326Z,34.60
2017-07-19T17:06:47.954Z,34.40
2017-07-19T17:09:15.507Z,34.50
2017-07-19T17:11:43.054Z,34.50
2017-07-19T17:14:10.665Z,34.40
2017-07-19T17:16:38.973Z,34.30
2017-07-19T17:19:06.514Z,34.30
2017-07-19T17:21:34.090Z,34.20
2017-07-19T17:24:01.634Z,34.20
2017-07-19T17:26:29.178Z,34.10
2017-07-19T17:28:57.513Z,33.90
2017-07-19T17:31:25.056Z,33.90
2017-07-19T17:33:52.593Z,33.80
2017-07-19T17:36:20.198Z,33.60
2017-07-19T17:38:47.733Z,33.50
2017-07-19T17:41:15.270Z,33.40
2017-07-19T17:43:42.853Z,33.20
2017-07-19T17:46:10.901Z,33.10
2017-07-19T17:48:38.445Z,33.10
2017-07-19T17:51:06.777Z,32.90
2017-07-19T17:53:34.319Z,32.90
2017-07-19T17:56:01.865Z,32.80
2017-07-19T17:58:29.481Z,32.60
2017-07-19T18:00:57.021Z,32.50
2017-07-19T18:03:24.558Z,32.20
2017-07-19T18:05:52.125Z,32.00
2017-07-19T18:08:19.686Z,31.70
2017-07-19T18:10:47.221Z,31.60
2017-07-19T18:13:14.829Z,31.40
2017-07-19T18:15:42.365Z,31.20
2017-07-19T18:18:09.906Z,31.10
2017-07-19T18:20:37.510Z,30.90
2017-07-19T18:23:05.057Z,30.90
2017-07-19T18:25:33.313Z,30.80
2017-07-19T18:28:00.889Z,30.70
2017-07-19T18:30:28.434Z,30.70
2017-07-19T18:32:55.981Z,30.50
2017-07-19T18:35:23.556Z,30.40
2017-07-19T18:37:51.098Z,30.30
2017-07-19T18:40:18.646Z,30.20
2017-07-19T18:42:46.264Z,30.10
2017-07-19T18:45:13.833Z,30.00
2017-07-19T18:47:41.636Z,29.90
2017-07-19T18:50:09.202Z,29.80
2017-07-19T18:52:36.748Z,29.70
2017-07-19T18:55:04.445Z,29.60
2017-07-19T18:57:32.042Z,29.50
2017-07-19T18:59:59.596Z,29.40
2017-07-19T19:02:27.138Z,29.40
2017-07-19T19:04:54.761Z,29.30
2017-07-19T19:07:22.301Z,29.20
2017-07-19T19:09:51.522Z,29.00
2017-07-19T19:12:19.090Z,29.00
2017-07-19T19:14:46.642Z,28.80
2017-07-19T19:17:14.190Z,28.70
2017-07-19T19:19:41.843Z,28.70
2017-07-19T19:22:09.393Z,28.60
2017-07-19T19:24:36.942Z,28.50
2017-07-19T19:27:04.568Z,28.50
2017-07-19T19:29:32.124Z,28.50
2017-07-19T19:31:59.687Z,28.50
2017-07-19T19:34:27.266Z,28.50
2017-07-19T19:36:54.814Z,28.40
2017-07-19T19:39:22.357Z,28.40
2017-07-19T19:41:50.711Z,28.30
2017-07-19T19:44:18.374Z,28.30
2017-07-19T19:46:45.918Z,28.20
2017-07-19T19:49:14.353Z,28.10
2017-07-19T19:51:41.907Z,28.10
2017-07-19T19:54:09.486Z,28.00
2017-07-19T19:56:37.079Z,28.00
2017-07-19T19:59:10.085Z,27.90
2017-07-19T20:01:39.046Z,27.80
2017-07-19T20:04:06.621Z,27.80
2017-07-19T20:06:41.554Z,27.80
2017-07-19T20:09:09.887Z,27.70
2017-07-19T20:11:37.458Z,27.70
2017-07-19T20:14:11.299Z,27.70
2017-07-19T20:16:38.886Z,27.60
2017-07-19T20:19:06.442Z,27.60
2017-07-19T20:21:34.062Z,27.50
2017-07-19T20:24:01.620Z,27.30
2017-07-19T20:26:29.165Z,27.20
2017-07-19T20:28:56.778Z,27.10
2017-07-19T20:31:24.333Z,27.00
2017-07-19T20:33:51.881Z,27.00
2017-07-19T20:36:20.237Z,26.90
2017-07-19T20:38:47.838Z,26.90
2017-07-19T20:41:15.390Z,26.90
2017-07-19T20:43:42.981Z,26.80
2017-07-19T20:46:10.534Z,26.80
2017-07-19T20:48:38.527Z,26.80
2017-07-19T20:51:06.606Z,26.80
2017-07-19T20:53:34.147Z,26.80
2017-07-19T20:56:01.703Z,26.80
2017-07-19T20:58:29.282Z,26.80
2017-07-19T21:00:56.832Z,26.70
2017-07-19T21:03:24.382Z,26.70
2017-07-19T21:05:51.961Z,26.60
2017-07-19T21:08:19.502Z,26.60
2017-07-19T21:10:47.741Z,26.40
2017-07-19T21:13:16.158Z,26.20
2017-07-19T21:15:43.748Z,26.20
2017-07-19T21:18:16.217Z,26.20
2017-07-19T21:20:43.823Z,26.10
2017-07-19T21:23:11.411Z,26.00
2017-07-19T21:25:38.993Z,25.80
2017-07-19T21:28:06.646Z,25.70
2017-07-19T21:30:34.235Z,25.30
2017-07-19T21:33:01.821Z,25.10
2017-07-19T21:35:29.475Z,25.00
2017-07-19T21:37:57.055Z,25.10
2017-07-19T21:40:24.635Z,25.20
2017-07-19T21:42:52.263Z,25.20
2017-07-19T21:45:19.858Z,25.30
2017-07-19T21:47:47.439Z,25.40
2017-07-19T21:50:15.051Z,25.50
2017-07-19T21:52:43.704Z,25.40
2017-07-19T21:55:11.292Z,25.40
2017-07-19T21:57:38.943Z,25.50
2017-07-19T22:00:06.530Z,25.50
2017-07-19T22:02:34.112Z,25.40
2017-07-19T22:05:01.730Z,25.30
2017-07-19T22:07:29.314Z,25.30
2017-07-19T22:09:56.915Z,25.20
2017-07-19T22:12:24.531Z,25.20
2017-07-19T22:14:52.112Z,25.20
2017-07-19T22:17:19.702Z,25.20
2017-07-19T22:19:47.352Z,25.10
2017-07-19T22:22:14.943Z,25.10
2017-07-19T22:24:42.543Z,25.10
2017-07-19T22:27:10.188Z,25.00
2017-07-19T22:29:37.771Z,25.00
2017-07-19T22:32:05.357Z,24.80
2017-07-19T22:34:33.019Z,24.80
2017-07-19T22:37:00.600Z,24.70
2017-07-19T22:39:28.183Z,24.70
2017-07-19T22:41:56.880Z,24.60
2017-07-19T22:44:25.236Z,24.60
2017-07-19T22:46:52.832Z,24.50
2017-07-19T22:49:20.439Z,24.50
2017-07-19T22:51:48.031Z,24.50
2017-07-19T22:54:15.840Z,24.40
2017-07-19T22:56:43.451Z,24.40
2017-07-19T22:59:11.039Z,24.50
2017-07-19T23:01:38.628Z,24.40
2017-07-19T23:04:06.443Z,24.40
2017-07-19T23:06:34.800Z,24.40
2017-07-19T23:09:02.387Z,24.30
2017-07-19T23:11:30.003Z,24.30
2017-07-19T23:13:57.579Z,24.30
2017-07-19T23:16:25.159Z,24.30
2017-07-19T23:18:52.787Z,24.30
2017-07-19T23:21:20.397Z,24.30
2017-07-19T23:23:48.001Z,24.30
2017-07-19T23:26:15.655Z,24.20
2017-07-19T23:28:43.238Z,24.30
2017-07-19T23:31:10.815Z,24.20
2017-07-19T23:33:38.423Z,24.20
2017-07-19T23:36:06.004Z,24.20
2017-07-19T23:38:33.586Z,24.20
2017-07-19T23:41:01.244Z,24.30
2017-07-19T23:43:28.827Z,24.20
2017-07-19T23:45:56.407Z,24.20
2017-07-19T23:48:24.051Z,24.20
2017-07-19T23:50:51.635Z,24.20
2017-07-19T23:53:19.228Z,24.30
2017-07-19T23:55:47.334Z,24.30
2017-07-19T23:58:14.918Z,24.30
